createdAt,value
2023-05-09T00:14:56.697Z,2.78
2023-05-09T00:17:24.089Z,2.88
2023-05-09T00:19:51.507Z,2.80
2023-05-09T00:22:18.836Z,2.78
2023-05-09T00:24:45.587Z,2.70
2023-05-09T00:27:12.193Z,2.83
2023-05-09T00:29:38.714Z,2.50
2023-05-09T00:32:05.619Z,2.70
2023-05-09T00:34:32.436Z,2.75
2023-05-09T00:36:59.023Z,3.15
2023-05-09T00:39:25.710Z,2.92
2023-05-09T00:41:52.401Z,2.65
2023-05-09T00:44:18.939Z,2.63
2023-05-09T00:46:45.535Z,3.10
2023-05-09T00:49:12.562Z,3.10
2023-05-09T00:51:40.698Z,2.72
2023-05-09T00:54:12.131Z,2.78
2023-05-09T00:56:39.309Z,3.03
2023-05-09T00:59:06.555Z,2.95
2023-05-09T01:01:33.081Z,2.85
2023-05-09T01:03:59.836Z,3.20
2023-05-09T01:06:39.632Z,3.13
2023-05-09T01:09:30.676Z,3.00
2023-05-09T01:12:23.367Z,2.58
2023-05-09T01:14:58.852Z,2.72
2023-05-09T01:17:50.208Z,3.10
2023-05-09T01:20:35.635Z,3.22
2023-05-09T01:23:21.874Z,3.00
2023-05-09T01:26:06.381Z,2.90
2023-05-09T01:29:06.420Z,2.90
2023-05-09T01:31:38.246Z,3.20
2023-05-09T01:34:07.164Z,3.15
2023-05-09T01:36:36.428Z,3.45
2023-05-09T01:39:04.347Z,3.13
2023-05-09T01:41:32.088Z,2.58
2023-05-09T01:44:02.366Z,3.20
2023-05-09T01:46:32.085Z,3.40
2023-05-09T01:49:01.160Z,3.35
2023-05-09T01:51:29.173Z,2.90
2023-05-09T01:53:57.103Z,3.42
2023-05-09T01:56:25.641Z,3.38
2023-05-09T01:58:53.966Z,3.25
2023-05-09T02:03:52.727Z,3.33
2023-05-09T02:06:21.534Z,3.38
2023-05-09T02:08:49.705Z,3.70
2023-05-09T02:11:16.165Z,3.47
2023-05-09T02:13:42.759Z,3.47
2023-05-09T02:16:10.308Z,3.38
2023-05-09T02:18:37.321Z,3.55
2023-05-09T02:21:04.351Z,3.60
2023-05-09T02:23:31.408Z,3.78
2023-05-09T02:25:58.212Z,3.60
2023-05-09T02:28:27.304Z,3.42
2023-05-09T02:30:57.147Z,3.65
2023-05-09T02:33:24.424Z,3.53
2023-05-09T02:35:51.250Z,3.42
2023-05-09T02:38:19.165Z,3.90
2023-05-09T02:40:47.646Z,3.60
2023-05-09T02:43:15.226Z,3.90
2023-05-09T02:45:42.169Z,3.25
2023-05-09T02:48:09.341Z,3.85
2023-05-09T02:50:38.373Z,3.50
2023-05-09T02:53:05.700Z,4.00
2023-05-09T02:55:32.185Z,3.78
2023-05-09T02:58:12.117Z,3.65
2023-05-09T03:00:39.717Z,3.72
2023-05-09T03:03:06.272Z,3.80
2023-05-09T03:05:32.972Z,4.00
2023-05-09T03:07:59.428Z,4.50
2023-05-09T03:10:25.991Z,3.83
2023-05-09T03:12:52.405Z,3.88
2023-05-09T03:15:19.824Z,3.92
2023-05-09T03:17:46.793Z,3.80
2023-05-09T03:20:14.075Z,3.63
2023-05-09T03:22:40.697Z,4.03
2023-05-09T03:25:07.690Z,3.92
2023-05-09T03:27:34.328Z,3.65
2023-05-09T03:30:00.811Z,3.70
2023-05-09T03:32:31.052Z,4.10
2023-05-09T03:34:57.682Z,3.83
2023-05-09T03:37:28.290Z,4.00
2023-05-09T03:39:55.005Z,3.95
2023-05-09T03:42:22.304Z,4.93
2023-05-09T03:44:48.858Z,4.13
2023-05-09T03:47:15.504Z,4.38
2023-05-09T03:49:41.922Z,4.00
2023-05-09T03:52:08.474Z,4.32
2023-05-09T03:54:35.295Z,4.30
2023-05-09T03:57:10.188Z,4.07
2023-05-09T03:59:36.606Z,4.40
2023-05-09T04:02:03.447Z,4.30
2023-05-09T04:04:29.995Z,4.28
2023-05-09T04:06:56.462Z,4.80
2023-05-09T04:09:22.921Z,5.10
2023-05-09T04:11:49.302Z,4.90
2023-05-09T04:14:15.794Z,4.60
2023-05-09T04:16:42.279Z,5.40
2023-05-09T04:19:08.806Z,5.15
2023-05-09T04:21:35.246Z,5.10
2023-05-09T04:24:01.695Z,4.95
2023-05-09T04:26:28.160Z,5.18
2023-05-09T04:28:54.570Z,5.13
2023-05-09T04:31:26.576Z,4.85
2023-05-09T04:33:53.168Z,4.95
2023-05-09T04:36:19.569Z,4.57
2023-05-09T04:38:46.472Z,4.72
2023-05-09T04:41:12.937Z,4.72
2023-05-09T04:43:39.577Z,4.72
2023-05-09T04:46:06.093Z,4.70
2023-05-09T04:48:32.520Z,4.85
2023-05-09T04:50:58.913Z,4.78
2023-05-09T04:53:26.017Z,5.07
2023-05-09T04:55:53.279Z,5.30
2023-05-09T04:58:20.278Z,4.75
2023-05-09T05:00:46.749Z,4.85
2023-05-09T05:03:13.224Z,4.88
2023-05-09T05:05:41.584Z,4.75
2023-05-09T05:08:08.081Z,4.85
2023-05-09T05:10:34.662Z,4.95
2023-05-09T05:13:01.220Z,4.53
2023-05-09T05:15:27.692Z,4.40
2023-05-09T05:17:54.194Z,4.38
2023-05-09T05:20:21.270Z,4.38
2023-05-09T05:22:47.748Z,4.70
2023-05-09T05:25:14.365Z,4.60
2023-05-09T05:27:40.976Z,4.75
2023-05-09T05:30:08.419Z,4.65
2023-05-09T05:32:34.922Z,4.65
2023-05-09T05:35:02.582Z,4.70
2023-05-09T05:37:29.104Z,4.70
2023-05-09T05:39:55.494Z,5.10
2023-05-09T05:42:22.207Z,5.20
2023-05-09T05:44:48.615Z,5.25
2023-05-09T05:47:15.001Z,5.57
2023-05-09T05:49:41.938Z,5.43
2023-05-09T05:52:08.358Z,4.88
2023-05-09T05:54:34.723Z,5.10
2023-05-09T05:57:01.185Z,5.20
2023-05-09T05:59:27.766Z,5.20
2023-05-09T06:01:54.209Z,5.60
2023-05-09T06:04:21.182Z,5.85
2023-05-09T06:06:48.342Z,5.40
2023-05-09T06:09:14.993Z,5.57
2023-05-09T06:11:44.492Z,6.15
2023-05-09T06:14:11.011Z,6.05
2023-05-09T06:16:37.692Z,5.90
2023-05-09T06:19:04.218Z,5.75
2023-05-09T06:21:31.126Z,5.15
2023-05-09T06:24:11.677Z,5.45
2023-05-09T06:26:43.589Z,5.47
2023-05-09T06:29:10.765Z,5.30
2023-05-09T06:31:38.814Z,5.07
2023-05-09T06:34:06.165Z,5.07
2023-05-09T06:36:33.443Z,5.10
2023-05-09T06:39:00.207Z,5.45
2023-05-09T06:41:26.740Z,5.05
2023-05-09T06:43:53.300Z,5.50
2023-05-09T06:46:19.881Z,5.20
2023-05-09T06:48:46.814Z,5.20
2023-05-09T06:51:13.427Z,4.95
2023-05-09T06:53:39.885Z,4.60
2023-05-09T06:56:06.522Z,4.32
2023-05-09T06:58:33.021Z,4.63
2023-05-09T07:00:59.799Z,4.93
2023-05-09T07:03:26.805Z,4.80
2023-05-09T07:05:53.386Z,4.53
2023-05-09T07:08:19.842Z,4.82
2023-05-09T07:10:46.273Z,4.93
2023-05-09T07:13:13.518Z,4.70
2023-05-09T07:15:42.686Z,4.30
2023-05-09T07:18:09.822Z,3.92
2023-05-09T07:20:36.553Z,4.38
2023-05-09T07:23:06.204Z,4.43
2023-05-09T07:25:32.742Z,4.25
2023-05-09T07:27:59.355Z,4.53
2023-05-09T07:30:26.078Z,4.28
2023-05-09T07:32:52.951Z,4.50
2023-05-09T07:35:20.373Z,4.20
2023-05-09T07:37:46.862Z,4.30
2023-05-09T07:40:14.047Z,4.45
2023-05-09T07:42:40.792Z,4.40
2023-05-09T07:45:07.624Z,4.28
2023-05-09T07:47:34.097Z,4.25
2023-05-09T07:50:00.695Z,5.05
2023-05-09T07:52:27.123Z,4.07
2023-05-09T07:54:54.603Z,3.88
2023-05-09T07:57:21.829Z,3.50
2023-05-09T07:59:48.410Z,3.53
2023-05-09T08:02:14.967Z,3.58
2023-05-09T08:04:41.910Z,3.55
2023-05-09T08:07:09.077Z,3.25
2023-05-09T08:09:35.716Z,3.40
2023-05-09T08:12:02.244Z,3.33
2023-05-09T08:14:28.757Z,3.70
2023-05-09T08:16:55.207Z,3.30
2023-05-09T08:19:26.394Z,3.58
2023-05-09T08:21:53.367Z,3.28
2023-05-09T08:24:20.443Z,3.38
2023-05-09T08:26:47.059Z,3.83
2023-05-09T08:29:13.521Z,3.50
2023-05-09T08:31:40.120Z,3.40
2023-05-09T08:34:06.638Z,3.25
2023-05-09T08:36:33.889Z,2.90
2023-05-09T08:39:00.468Z,3.13
2023-05-09T08:41:30.165Z,2.90
2023-05-09T08:43:56.680Z,2.88
2023-05-09T08:46:43.672Z,2.72
2023-05-09T08:51:41.514Z,2.60
2023-05-09T08:54:08.390Z,2.83
2023-05-09T08:56:35.283Z,2.90
2023-05-09T08:59:01.793Z,2.45
2023-05-09T09:01:29.584Z,3.00
2023-05-09T09:03:56.776Z,3.08
2023-05-09T09:06:25.730Z,2.83
2023-05-09T09:08:55.444Z,2.83
2023-05-09T09:11:22.689Z,2.75
2023-05-09T09:13:52.949Z,2.50
2023-05-09T09:16:21.463Z,3.20
2023-05-09T09:18:51.665Z,2.97
2023-05-09T09:21:19.680Z,2.88
2023-05-09T09:23:47.641Z,2.88
2023-05-09T09:28:42.055Z,2.63
2023-05-09T09:31:25.998Z,2.83
2023-05-09T09:33:52.632Z,2.80
2023-05-09T09:36:29.832Z,2.92
2023-05-09T09:38:59.049Z,2.38
2023-05-09T09:41:36.818Z,2.40
2023-05-09T09:44:17.252Z,2.40
2023-05-09T09:46:55.192Z,2.33
2023-05-09T09:49:23.954Z,2.13
2023-05-09T09:51:55.930Z,2.50
2023-05-09T09:54:23.218Z,2.20
2023-05-09T09:56:57.707Z,2.20
2023-05-09T09:59:26.590Z,2.10
2023-05-09T10:01:57.626Z,2.13
2023-05-09T10:04:25.629Z,2.00
2023-05-09T10:09:29.528Z,2.10
2023-05-09T10:11:57.137Z,1.80
2023-05-09T10:14:25.412Z,1.70
2023-05-09T10:16:56.771Z,2.08
2023-05-09T10:19:26.365Z,1.85
2023-05-09T10:22:29.321Z,2.45
2023-05-09T10:28:18.712Z,2.17
2023-05-09T10:31:17.330Z,2.00
2023-05-09T10:33:48.197Z,2.15
2023-05-09T10:36:50.650Z,2.03
2023-05-09T10:39:33.531Z,1.90
2023-05-09T10:42:00.787Z,1.98
2023-05-09T10:47:35.819Z,1.80
2023-05-09T10:50:05.418Z,2.08
2023-05-09T10:52:33.644Z,1.80
2023-05-09T10:55:13.365Z,2.17
2023-05-09T10:57:39.922Z,1.95
2023-05-09T11:00:07.515Z,1.88
2023-05-09T11:02:39.273Z,1.95
2023-05-09T11:05:17.431Z,2.00
2023-05-09T11:08:33.531Z,1.90
2023-05-09T11:11:07.391Z,1.80
2023-05-09T11:13:53.706Z,1.70
2023-05-09T11:16:20.265Z,1.60
2023-05-09T11:18:52.488Z,2.13
2023-05-09T11:21:20.500Z,1.77
2023-05-09T11:26:48.177Z,1.90
2023-05-09T11:29:50.512Z,1.80
2023-05-09T11:35:23.267Z,1.70
2023-05-09T11:38:00.375Z,1.63
2023-05-09T11:40:28.086Z,1.42
2023-05-09T11:42:58.332Z,1.70
2023-05-09T11:45:39.564Z,1.42
2023-05-09T11:50:48.191Z,1.63
2023-05-09T11:53:29.304Z,1.40
2023-05-09T11:56:03.072Z,1.42
2023-05-09T11:58:29.669Z,1.63
2023-05-09T12:00:57.493Z,1.60
2023-05-09T12:03:41.073Z,1.40
2023-05-09T12:06:25.199Z,1.48
2023-05-09T12:09:01.042Z,1.52
2023-05-09T12:11:32.220Z,1.40
2023-05-09T12:13:58.751Z,1.40
2023-05-09T12:16:25.412Z,1.60
2023-05-09T12:18:54.268Z,1.65
2023-05-09T12:21:21.738Z,1.52
2023-05-09T12:23:50.967Z,1.63
2023-05-09T12:26:18.933Z,1.50
2023-05-09T12:28:45.671Z,1.65
2023-05-09T12:31:12.978Z,1.30
2023-05-09T12:33:39.824Z,1.70
2023-05-09T12:36:11.636Z,1.55
2023-05-09T12:38:38.862Z,1.50
2023-05-09T12:41:18.898Z,1.50
2023-05-09T12:43:56.530Z,1.73
2023-05-09T12:46:23.162Z,1.63
2023-05-09T12:48:49.864Z,1.40
2023-05-09T12:51:20.750Z,1.90
2023-05-09T12:53:47.780Z,1.75
2023-05-09T12:56:16.439Z,1.63
2023-05-09T12:58:53.888Z,1.65
2023-05-09T13:01:22.379Z,1.58
2023-05-09T13:04:07.609Z,1.90
2023-05-09T13:06:35.675Z,1.65
2023-05-09T13:09:06.106Z,1.48
2023-05-09T13:11:32.711Z,1.67
2023-05-09T13:13:59.275Z,1.58
2023-05-09T13:16:25.755Z,1.52
2023-05-09T13:18:52.183Z,1.30
2023-05-09T13:21:20.060Z,1.48
2023-05-09T13:23:46.488Z,1.20
2023-05-09T13:26:12.946Z,1.40
2023-05-09T13:28:39.387Z,1.50
2023-05-09T13:31:06.890Z,1.40
2023-05-09T13:33:33.546Z,1.23
2023-05-09T13:36:00.069Z,1.30
2023-05-09T13:38:26.985Z,1.10
2023-05-09T13:40:53.443Z,1.30
2023-05-09T13:43:19.884Z,1.30
2023-05-09T13:45:46.389Z,1.30
2023-05-09T13:48:12.981Z,1.20
2023-05-09T13:50:39.494Z,1.40
2023-05-09T13:53:05.931Z,1.20
2023-05-09T13:55:32.681Z,1.20
2023-05-09T13:57:59.129Z,1.20
2023-05-09T14:00:26.548Z,1.40
2023-05-09T14:02:53.049Z,1.30
2023-05-09T14:05:19.754Z,1.30
2023-05-09T14:07:46.243Z,1.30
2023-05-09T14:10:12.925Z,1.23
2023-05-09T14:12:42.439Z,1.10
2023-05-09T14:15:11.175Z,1.25
2023-05-09T14:17:37.903Z,1.20
2023-05-09T14:20:04.707Z,1.10
2023-05-09T14:22:31.153Z,1.20
2023-05-09T14:24:57.712Z,1.30
2023-05-09T14:27:25.131Z,1.20
2023-05-09T14:29:51.855Z,1.20
2023-05-09T14:32:18.313Z,1.40
2023-05-09T14:34:45.555Z,1.30
2023-05-09T14:37:14.842Z,1.52
2023-05-09T14:39:45.126Z,1.67
2023-05-09T14:42:14.105Z,1.40
2023-05-09T14:44:41.777Z,1.30
2023-05-09T14:47:09.565Z,1.25
2023-05-09T14:49:37.277Z,1.30
2023-05-09T14:52:03.842Z,1.30
2023-05-09T14:54:30.394Z,1.20
2023-05-09T14:56:57.496Z,1.50
2023-05-09T14:59:24.117Z,1.33
2023-05-09T15:01:51.725Z,1.40
2023-05-09T15:04:18.288Z,1.10
2023-05-09T15:06:45.858Z,1.25
2023-05-09T15:09:13.004Z,1.30
2023-05-09T15:11:47.825Z,1.20
2023-05-09T15:14:16.358Z,1.45
2023-05-09T15:16:42.985Z,1.20
2023-05-09T15:19:09.486Z,1.25
2023-05-09T15:21:35.949Z,1.38
2023-05-09T15:24:03.267Z,1.38
2023-05-09T15:26:30.158Z,1.33
2023-05-09T15:28:56.623Z,1.30
2023-05-09T15:31:24.062Z,1.50
2023-05-09T15:33:50.889Z,1.42
2023-05-09T15:36:17.389Z,1.52
2023-05-09T15:38:48.320Z,1.30
2023-05-09T15:41:15.388Z,1.98
2023-05-09T15:43:42.101Z,1.40
2023-05-09T15:46:08.562Z,1.70
2023-05-09T15:48:35.043Z,1.40
2023-05-09T15:51:02.690Z,1.67
2023-05-09T15:53:29.389Z,1.25
2023-05-09T15:55:56.900Z,1.23
2023-05-09T15:58:23.523Z,1.60
2023-05-09T16:00:50.162Z,1.10
2023-05-09T16:03:16.856Z,1.58
2023-05-09T16:05:43.802Z,1.50
2023-05-09T16:08:10.376Z,1.40
2023-05-09T16:10:36.780Z,1.40
2023-05-09T16:13:03.554Z,1.23
2023-05-09T16:15:30.002Z,1.45
2023-05-09T16:17:56.429Z,1.70
2023-05-09T16:20:23.047Z,1.40
2023-05-09T16:22:49.518Z,1.35
2023-05-09T16:25:16.780Z,1.50
2023-05-09T16:27:43.509Z,1.55
2023-05-09T16:30:10.478Z,1.42
2023-05-09T16:32:36.967Z,1.60
2023-05-09T16:35:04.147Z,1.65
2023-05-09T16:37:30.900Z,1.50
2023-05-09T16:39:59.288Z,1.38
2023-05-09T16:44:52.577Z,1.60
2023-05-09T16:47:19.046Z,1.52
2023-05-09T16:49:45.947Z,1.50
2023-05-09T16:52:12.439Z,1.30
2023-05-09T16:54:38.880Z,1.50
2023-05-09T16:57:05.628Z,1.50
2023-05-09T16:59:33.151Z,1.70
2023-05-09T17:01:59.623Z,1.38
2023-05-09T17:04:26.568Z,1.40
2023-05-09T17:06:53.285Z,1.50
2023-05-09T17:09:19.829Z,1.60
2023-05-09T17:11:46.393Z,1.85
2023-05-09T17:14:12.777Z,1.77
2023-05-09T17:16:39.246Z,1.85
2023-05-09T17:19:05.729Z,1.58
2023-05-09T17:21:32.301Z,1.52
2023-05-09T17:23:58.734Z,1.60
2023-05-09T17:26:25.955Z,1.73
2023-05-09T17:28:52.480Z,1.55
2023-05-09T17:31:19.035Z,1.67
2023-05-09T17:33:45.472Z,1.90
2023-05-09T17:36:11.863Z,1.63
2023-05-09T17:38:38.370Z,2.03
2023-05-09T17:41:04.885Z,1.42
2023-05-09T17:43:31.921Z,1.73
2023-05-09T17:45:58.950Z,1.60
2023-05-09T17:48:25.637Z,1.85
2023-05-09T17:50:52.658Z,1.67
2023-05-09T17:53:19.121Z,1.70
2023-05-09T17:55:45.613Z,1.60
2023-05-09T17:58:12.125Z,1.63
2023-05-09T18:00:38.628Z,1.80
2023-05-09T18:03:05.323Z,1.90
2023-05-09T18:05:31.949Z,2.00
2023-05-09T18:08:00.810Z,2.15
2023-05-09T18:10:28.686Z,1.70
2023-05-09T18:12:55.603Z,1.50
2023-05-09T18:15:24.623Z,1.90
2023-05-09T18:17:51.376Z,1.70
2023-05-09T18:20:21.230Z,1.70
2023-05-09T18:22:47.734Z,1.80
2023-05-09T18:25:14.387Z,1.98
2023-05-09T18:27:40.985Z,1.80
2023-05-09T18:30:08.220Z,1.75
2023-05-09T18:32:53.856Z,1.52
2023-05-09T19:09:22.122Z,2.20
2023-05-09T20:12:26.360Z,2.00
2023-05-09T20:15:24.852Z,2.22
2023-05-09T20:21:03.423Z,2.00
2023-05-09T20:23:36.817Z,2.40
2023-05-09T20:29:53.186Z,2.10
2023-05-09T20:32:20.096Z,1.92
2023-05-09T20:34:53.279Z,2.05
2023-05-09T20:37:21.172Z,2.05
2023-05-09T20:39:47.772Z,2.35
2023-05-09T21:13:49.052Z,2.10
2023-05-09T21:26:20.036Z,1.73
2023-05-09T21:28:48.088Z,2.10
2023-05-09T21:31:17.949Z,1.92
2023-05-09T21:37:38.500Z,1.90
2023-05-09T21:40:18.813Z,1.98
2023-05-09T21:50:58.567Z,2.03
2023-05-09T21:53:33.506Z,2.00
2023-05-09T22:02:28.215Z,2.10
